North Liberty, IA (52317)

1:29 PM CDT on July 04, 2015 (GMT -0500)
SDS Forevergreen Rd North Liberty IA | | Change Station
CLOSE
Current Station
Personal Weather Station
Location: North Liberty, IA
Elevation: 764 ft
Nearby Weather Stations

Elev 764 ft 41.73 °N, 91.62 °W | Updated 6 seconds ago

Clear
Clear
79.3 °F
Feels Like 78 °F
N
2.7
Wind Variable Wind from ESE
Gusts 4.9 mph

Today
High -- | Low -- °F
--% Chance of Precip.
Yesterday
High -- | Low -- °F
Precip. -- in
5:37 AM 8:44 PM
Waning Gibbous, 91% visible
Pressure 30.01 in
Visibility 10.0 miles
Clouds Few 4100 ft
Heat Index 78 °F
Dew Point 38 °F
Humidity 23%
Rainfall 0.00 in
Snow Depth Not available.
UV 6.0 out of 12
Pollen 3.90 out of 12
Air Quality Not available.
Flu Activity Not available.
METAR KIOW 041752Z AUTO 16004KT 10SM FEW041 25/16 A3002 RMK AO2 SLP163 T02500156 10256 20150 58002

More Conditions Fewer Conditions

Pressure 30.01 in
Visibility 10.0 miles
Clouds Few 4100 ft
Heat Index 78 °F
Dew Point 38 °F
Humidity 23%
Rainfall 0.00 in
Snow Depth Not available.
UV 6.0 out of 12
Pollen 3.90 out of 12
Air Quality Not available.
Flu Activity Not available.
METAR KIOW 041752Z AUTO 16004KT 10SM FEW041 25/16 A3002 RMK AO2 SLP163 T02500156 10256 20150 58002

More Conditions Fewer Conditions

10-Day Weather Forecast

×

Almanac

Astronomy

Jul. 04, 2015 Rise Set
Actual Time
Civil Twilight
Nautical Twilight
Astronomical Twilight
Moon
Length of Visible Light
Length of Day
Tomorrow will be .
, % of the Moon is Illuminated

Today's Extremes

State Highs State Lows

Community

WunderPhotos

Upload Photos

1,835,032 photos uploaded!

WunderBlogs® & News

Nearby

Air Quality

  Air Quality AQ Index Pollutant
Not available.

Snow Depth

Station Depth Elevation

Earthquake Activity

City Distance Mag. Time & Date
Minimum magnitude displayed is 2.5.

Coastal Water Temperatures

Place Temperature

Stations

Nearby Weather Stations

Station Location Temp. Windchill Dew Point Humidity Wind Precip. Elev Updated Type